sensor_id;sensor_type;location;lat;lon;timestamp;temperature;humidity
23755;DHT22;12057;52.042;6.830;2023-05-10T00:01:35;14.60;99.90
23755;DHT22;12057;52.042;6.830;2023-05-10T00:06:36;14.60;99.90
23755;DHT22;12057;52.042;6.830;2023-05-10T00:11:37;14.50;99.90
23755;DHT22;12057;52.042;6.830;2023-05-10T00:16:38;14.30;99.90
23755;DHT22;12057;52.042;6.830;2023-05-10T00:21:38;14.30;99.90
23755;DHT22;12057;52.042;6.830;2023-05-10T00:26:39;14.20;99.90
23755;DHT22;12057;52.042;6.830;2023-05-10T00:31:40;14.10;99.90
23755;DHT22;12057;52.042;6.830;2023-05-10T00:36:41;14.10;99.90
23755;DHT22;12057;52.042;6.830;2023-05-10T00:41:41;14.00;99.90
23755;DHT22;12057;52.042;6.830;2023-05-10T00:46:42;13.90;99.90
23755;DHT22;12057;52.042;6.830;2023-05-10T00:51:43;14.00;99.90
23755;DHT22;12057;52.042;6.830;2023-05-10T00:56:45;14.00;99.90
23755;DHT22;12057;52.042;6.830;2023-05-10T01:01:49;14.00;99.90
23755;DHT22;12057;52.042;6.830;2023-05-10T01:06:49;13.90;99.90
23755;DHT22;12057;52.042;6.830;2023-05-10T01:17:48;13.90;99.90
23755;DHT22;12057;52.042;6.830;2023-05-10T01:38:56;13.90;99.90
23755;DHT22;12057;52.042;6.830;2023-05-10T01:44:15;13.90;99.90
23755;DHT22;12057;52.042;6.830;2023-05-10T01:49:24;14.00;99.90
23755;DHT22;12057;52.042;6.830;2023-05-10T01:54:27;13.90;99.90
23755;DHT22;12057;52.042;6.830;2023-05-10T01:59:34;14.00;99.90
23755;DHT22;12057;52.042;6.830;2023-05-10T02:04:40;13.90;99.90
23755;DHT22;12057;52.042;6.830;2023-05-10T02:09:44;13.90;99.90
23755;DHT22;12057;52.042;6.830;2023-05-10T02:14:48;13.90;99.90
23755;DHT22;12057;52.042;6.830;2023-05-10T02:19:51;13.80;99.90
23755;DHT22;12057;52.042;6.830;2023-05-10T02:24:55;13.80;99.90
23755;DHT22;12057;52.042;6.830;2023-05-10T02:29:58;13.80;99.90
23755;DHT22;12057;52.042;6.830;2023-05-10T02:35:00;13.80;99.90
23755;DHT22;12057;52.042;6.830;2023-05-10T02:40:02;13.80;99.90
23755;DHT22;12057;52.042;6.830;2023-05-10T02:45:13;13.90;99.90
23755;DHT22;12057;52.042;6.830;2023-05-10T02:50:15;13.90;99.90
23755;DHT22;12057;52.042;6.830;2023-05-10T02:55:16;14.00;99.90
23755;DHT22;12057;52.042;6.830;2023-05-10T03:00:19;14.00;99.90
23755;DHT22;12057;52.042;6.830;2023-05-10T03:05:20;14.00;99.90
23755;DHT22;12057;52.042;6.830;2023-05-10T03:10:27;13.90;99.90
23755;DHT22;12057;52.042;6.830;2023-05-10T03:21:07;13.90;99.90
23755;DHT22;12057;52.042;6.830;2023-05-10T03:26:26;13.80;99.90
23755;DHT22;12057;52.042;6.830;2023-05-10T03:31:28;13.90;99.90
23755;DHT22;12057;52.042;6.830;2023-05-10T03:36:29;13.90;99.90
23755;DHT22;12057;52.042;6.830;2023-05-10T03:41:30;13.90;99.90
23755;DHT22;12057;52.042;6.830;2023-05-10T03:46:30;13.90;99.90
23755;DHT22;12057;52.042;6.830;2023-05-10T03:51:31;13.90;99.90
23755;DHT22;12057;52.042;6.830;2023-05-10T03:56:32;14.00;99.90
23755;DHT22;12057;52.042;6.830;2023-05-10T04:01:36;14.00;99.90
23755;DHT22;12057;52.042;6.830;2023-05-10T04:06:37;14.00;99.90
23755;DHT22;12057;52.042;6.830;2023-05-10T04:11:38;14.00;99.90
23755;DHT22;12057;52.042;6.830;2023-05-10T04:16:39;14.00;99.90
23755;DHT22;12057;52.042;6.830;2023-05-10T04:21:40;14.10;99.90
23755;DHT22;12057;52.042;6.830;2023-05-10T04:26:41;14.10;99.90
23755;DHT22;12057;52.042;6.830;2023-05-10T04:31:41;14.10;99.90
23755;DHT22;12057;52.042;6.830;2023-05-10T04:36:42;14.20;99.90
23755;DHT22;12057;52.042;6.830;2023-05-10T04:41:43;14.00;99.90
23755;DHT22;12057;52.042;6.830;2023-05-10T04:46:44;14.00;99.90
23755;DHT22;12057;52.042;6.830;2023-05-10T04:51:45;14.00;99.90
23755;DHT22;12057;52.042;6.830;2023-05-10T04:56:45;14.10;99.90
23755;DHT22;12057;52.042;6.830;2023-05-10T05:01:46;14.10;99.90
23755;DHT22;12057;52.042;6.830;2023-05-10T05:06:47;14.10;99.90
23755;DHT22;12057;52.042;6.830;2023-05-10T05:11:48;14.10;99.90
23755;DHT22;12057;52.042;6.830;2023-05-10T05:16:52;14.10;99.90
23755;DHT22;12057;52.042;6.830;2023-05-10T05:21:53;14.10;99.90
23755;DHT22;12057;52.042;6.830;2023-05-10T05:26:54;14.20;99.90
23755;DHT22;12057;52.042;6.830;2023-05-10T05:31:54;14.20;99.90
23755;DHT22;12057;52.042;6.830;2023-05-10T05:36:55;14.30;99.90
23755;DHT22;12057;52.042;6.830;2023-05-10T05:41:56;14.30;99.90
23755;DHT22;12057;52.042;6.830;2023-05-10T05:46:57;14.40;99.90
23755;DHT22;12057;52.042;6.830;2023-05-10T05:52:01;14.30;99.90
23755;DHT22;12057;52.042;6.830;2023-05-10T05:57:03;14.20;99.90
23755;DHT22;12057;52.042;6.830;2023-05-10T06:02:04;14.20;99.90
23755;DHT22;12057;52.042;6.830;2023-05-10T06:07:04;14.20;99.90
23755;DHT22;12057;52.042;6.830;2023-05-10T06:12:05;14.20;99.90
23755;DHT22;12057;52.042;6.830;2023-05-10T06:17:06;14.20;99.90
23755;DHT22;12057;52.042;6.830;2023-05-10T06:22:07;14.20;99.90
23755;DHT22;12057;52.042;6.830;2023-05-10T06:27:08;14.30;99.90
23755;DHT22;12057;52.042;6.830;2023-05-10T06:32:08;14.40;99.90
23755;DHT22;12057;52.042;6.830;2023-05-10T06:37:09;14.50;99.90
23755;DHT22;12057;52.042;6.830;2023-05-10T06:42:10;14.60;99.90
23755;DHT22;12057;52.042;6.830;2023-05-10T06:47:11;14.70;99.90
23755;DHT22;12057;52.042;6.830;2023-05-10T06:52:11;14.80;99.90
23755;DHT22;12057;52.042;6.830;2023-05-10T06:57:12;15.00;99.90
23755;DHT22;12057;52.042;6.830;2023-05-10T07:02:13;15.00;99.90
23755;DHT22;12057;52.042;6.830;2023-05-10T07:07:15;15.00;99.90
23755;DHT22;12057;52.042;6.830;2023-05-10T07:12:16;15.00;99.90
23755;DHT22;12057;52.042;6.830;2023-05-10T07:17:17;15.00;99.90
23755;DHT22;12057;52.042;6.830;2023-05-10T07:22:18;15.00;99.90
23755;DHT22;12057;52.042;6.830;2023-05-10T07:27:18;15.00;99.90
23755;DHT22;12057;52.042;6.830;2023-05-10T07:32:20;15.00;99.90
23755;DHT22;12057;52.042;6.830;2023-05-10T07:37:20;15.00;99.90
23755;DHT22;12057;52.042;6.830;2023-05-10T07:42:21;15.00;99.90
23755;DHT22;12057;52.042;6.830;2023-05-10T07:47:22;15.00;99.90
23755;DHT22;12057;52.042;6.830;2023-05-10T07:52:23;15.00;99.90
23755;DHT22;12057;52.042;6.830;2023-05-10T07:57:24;14.80;99.90
23755;DHT22;12057;52.042;6.830;2023-05-10T08:02:25;14.90;99.90
23755;DHT22;12057;52.042;6.830;2023-05-10T08:07:26;14.90;99.90
23755;DHT22;12057;52.042;6.830;2023-05-10T08:12:26;15.10;99.90
23755;DHT22;12057;52.042;6.830;2023-05-10T08:17:27;15.20;99.90
23755;DHT22;12057;52.042;6.830;2023-05-10T08:22:28;15.20;99.90
23755;DHT22;12057;52.042;6.830;2023-05-10T08:27:29;15.20;99.90
23755;DHT22;12057;52.042;6.830;2023-05-10T08:32:29;15.20;99.90
23755;DHT22;12057;52.042;6.830;2023-05-10T08:37:30;15.30;99.90
23755;DHT22;12057;52.042;6.830;2023-05-10T08:42:34;15.30;99.90
23755;DHT22;12057;52.042;6.830;2023-05-10T08:47:39;15.40;99.90
23755;DHT22;12057;52.042;6.830;2023-05-10T08:52:40;15.40;99.90
23755;DHT22;12057;52.042;6.830;2023-05-10T08:57:41;15.40;99.90
23755;DHT22;12057;52.042;6.830;2023-05-10T09:02:43;15.50;99.90
23755;DHT22;12057;52.042;6.830;2023-05-10T09:07:44;15.70;99.90
23755;DHT22;12057;52.042;6.830;2023-05-10T09:12:45;15.70;99.90
23755;DHT22;12057;52.042;6.830;2023-05-10T09:17:47;15.50;99.90
23755;DHT22;12057;52.042;6.830;2023-05-10T09:22:49;15.30;99.90
23755;DHT22;12057;52.042;6.830;2023-05-10T09:27:50;15.30;99.90
23755;DHT22;12057;52.042;6.830;2023-05-10T09:32:51;15.30;99.90
23755;DHT22;12057;52.042;6.830;2023-05-10T09:37:54;15.50;99.90
23755;DHT22;12057;52.042;6.830;2023-05-10T09:42:57;15.40;99.90
23755;DHT22;12057;52.042;6.830;2023-05-10T09:47:58;15.60;99.90
23755;DHT22;12057;52.042;6.830;2023-05-10T09:53:01;15.70;99.90
23755;DHT22;12057;52.042;6.830;2023-05-10T09:58:03;15.90;99.90
23755;DHT22;12057;52.042;6.830;2023-05-10T10:03:04;16.00;99.90
23755;DHT22;12057;52.042;6.830;2023-05-10T10:08:06;16.10;99.90
23755;DHT22;12057;52.042;6.830;2023-05-10T10:13:07;16.30;99.90
23755;DHT22;12057;52.042;6.830;2023-05-10T10:18:13;16.40;99.90
23755;DHT22;12057;52.042;6.830;2023-05-10T10:23:14;16.60;99.90
23755;DHT22;12057;52.042;6.830;2023-05-10T10:34:08;16.90;99.90
23755;DHT22;12057;52.042;6.830;2023-05-10T10:39:10;17.30;99.90
23755;DHT22;12057;52.042;6.830;2023-05-10T10:49:37;17.50;99.90
23755;DHT22;12057;52.042;6.830;2023-05-10T10:54:38;18.00;99.90
23755;DHT22;12057;52.042;6.830;2023-05-10T10:59:43;18.10;99.90
23755;DHT22;12057;52.042;6.830;2023-05-10T11:04:44;18.70;99.90
23755;DHT22;12057;52.042;6.830;2023-05-10T11:09:50;19.00;99.90
23755;DHT22;12057;52.042;6.830;2023-05-10T11:14:50;19.40;99.90
23755;DHT22;12057;52.042;6.830;2023-05-10T11:20:08;19.00;99.90
23755;DHT22;12057;52.042;6.830;2023-05-10T11:25:10;18.20;99.90
23755;DHT22;12057;52.042;6.830;2023-05-10T11:30:11;17.70;99.90
23755;DHT22;12057;52.042;6.830;2023-05-10T11:35:13;17.30;99.90
23755;DHT22;12057;52.042;6.830;2023-05-10T11:40:13;16.80;99.90
23755;DHT22;12057;52.042;6.830;2023-05-10T11:45:14;16.60;99.90
23755;DHT22;12057;52.042;6.830;2023-05-10T11:50:16;16.30;99.90
23755;DHT22;12057;52.042;6.830;2023-05-10T11:55:17;16.20;99.90
23755;DHT22;12057;52.042;6.830;2023-05-10T12:00:18;16.20;99.90
23755;DHT22;12057;52.042;6.830;2023-05-10T12:05:19;16.30;99.90
23755;DHT22;12057;52.042;6.830;2023-05-10T12:10:25;16.30;99.90
23755;DHT22;12057;52.042;6.830;2023-05-10T12:15:27;16.60;99.90
23755;DHT22;12057;52.042;6.830;2023-05-10T12:20:28;16.60;99.90
23755;DHT22;12057;52.042;6.830;2023-05-10T12:25:32;16.60;99.90
23755;DHT22;12057;52.042;6.830;2023-05-10T12:30:34;16.90;99.90
23755;DHT22;12057;52.042;6.830;2023-05-10T12:35:45;17.10;99.90
23755;DHT22;12057;52.042;6.830;2023-05-10T12:40:46;17.10;99.90
23755;DHT22;12057;52.042;6.830;2023-05-10T12:45:47;16.90;99.90
23755;DHT22;12057;52.042;6.830;2023-05-10T12:50:49;16.80;99.90
23755;DHT22;12057;52.042;6.830;2023-05-10T12:55:50;16.60;99.90
23755;DHT22;12057;52.042;6.830;2023-05-10T13:00:51;16.80;99.90
23755;DHT22;12057;52.042;6.830;2023-05-10T13:05:52;16.80;99.90
23755;DHT22;12057;52.042;6.830;2023-05-10T13:10:53;16.80;99.90
23755;DHT22;12057;52.042;6.830;2023-05-10T13:15:54;16.90;99.90
23755;DHT22;12057;52.042;6.830;2023-05-10T13:20:54;17.10;99.90
23755;DHT22;12057;52.042;6.830;2023-05-10T13:25:56;17.40;99.90
23755;DHT22;12057;52.042;6.830;2023-05-10T13:30:56;17.80;99.90
23755;DHT22;12057;52.042;6.830;2023-05-10T13:35:58;17.80;99.90
23755;DHT22;12057;52.042;6.830;2023-05-10T13:40:59;17.60;99.90
23755;DHT22;12057;52.042;6.830;2023-05-10T13:46:03;17.80;99.90
23755;DHT22;12057;52.042;6.830;2023-05-10T13:51:04;18.30;99.90
23755;DHT22;12057;52.042;6.830;2023-05-10T13:56:05;18.60;99.90
23755;DHT22;12057;52.042;6.830;2023-05-10T14:01:06;18.70;99.90
23755;DHT22;12057;52.042;6.830;2023-05-10T14:06:07;18.70;99.90
23755;DHT22;12057;52.042;6.830;2023-05-10T14:11:09;18.80;99.90
23755;DHT22;12057;52.042;6.830;2023-05-10T14:16:10;18.40;99.90
23755;DHT22;12057;52.042;6.830;2023-05-10T14:21:12;18.40;99.90
23755;DHT22;12057;52.042;6.830;2023-05-10T14:26:12;18.80;99.90
23755;DHT22;12057;52.042;6.830;2023-05-10T14:31:13;18.50;99.90
23755;DHT22;12057;52.042;6.830;2023-05-10T14:36:14;18.40;99.90
23755;DHT22;12057;52.042;6.830;2023-05-10T14:41:16;18.50;99.90
23755;DHT22;12057;52.042;6.830;2023-05-10T14:46:18;19.10;99.90
23755;DHT22;12057;52.042;6.830;2023-05-10T14:51:19;19.50;99.90
23755;DHT22;12057;52.042;6.830;2023-05-10T14:56:25;19.80;99.90
23755;DHT22;12057;52.042;6.830;2023-05-10T15:01:26;20.00;99.90
23755;DHT22;12057;52.042;6.830;2023-05-10T15:06:31;19.90;99.90
23755;DHT22;12057;52.042;6.830;2023-05-10T15:11:32;19.80;99.90
23755;DHT22;12057;52.042;6.830;2023-05-10T15:16:33;19.50;99.90
23755;DHT22;12057;52.042;6.830;2023-05-10T15:21:34;19.40;99.90
23755;DHT22;12057;52.042;6.830;2023-05-10T15:26:39;19.10;99.90
23755;DHT22;12057;52.042;6.830;2023-05-10T15:31:39;18.90;99.90
23755;DHT22;12057;52.042;6.830;2023-05-10T15:36:40;18.90;99.90
23755;DHT22;12057;52.042;6.830;2023-05-10T15:41:44;18.50;99.90
23755;DHT22;12057;52.042;6.830;2023-05-10T15:46:45;18.50;99.90
23755;DHT22;12057;52.042;6.830;2023-05-10T15:51:46;18.60;99.90
23755;DHT22;12057;52.042;6.830;2023-05-10T15:56:47;18.50;99.90
23755;DHT22;12057;52.042;6.830;2023-05-10T16:01:48;18.40;99.90
23755;DHT22;12057;52.042;6.830;2023-05-10T16:06:50;18.50;99.90
23755;DHT22;12057;52.042;6.830;2023-05-10T16:11:51;18.50;99.90
23755;DHT22;12057;52.042;6.830;2023-05-10T16:16:51;18.70;99.90
23755;DHT22;12057;52.042;6.830;2023-05-10T16:21:52;19.00;99.90
23755;DHT22;12057;52.042;6.830;2023-05-10T16:26:53;19.10;99.90
23755;DHT22;12057;52.042;6.830;2023-05-10T16:31:54;19.20;99.90
23755;DHT22;12057;52.042;6.830;2023-05-10T16:36:54;19.00;99.90
23755;DHT22;12057;52.042;6.830;2023-05-10T16:41:55;18.70;99.90
23755;DHT22;12057;52.042;6.830;2023-05-10T16:46:56;18.50;99.90
23755;DHT22;12057;52.042;6.830;2023-05-10T16:51:57;18.40;99.90
23755;DHT22;12057;52.042;6.830;2023-05-10T16:56:57;18.30;99.90
23755;DHT22;12057;52.042;6.830;2023-05-10T17:01:58;18.00;99.90
23755;DHT22;12057;52.042;6.830;2023-05-10T17:06:59;17.90;99.90
23755;DHT22;12057;52.042;6.830;2023-05-10T17:12:00;17.60;99.90
23755;DHT22;12057;52.042;6.830;2023-05-10T17:17:03;17.20;99.90
23755;DHT22;12057;52.042;6.830;2023-05-10T17:22:04;17.20;99.90
23755;DHT22;12057;52.042;6.830;2023-05-10T17:27:04;17.00;99.90
23755;DHT22;12057;52.042;6.830;2023-05-10T17:32:05;16.90;99.90
23755;DHT22;12057;52.042;6.830;2023-05-10T17:37:08;16.90;99.90
23755;DHT22;12057;52.042;6.830;2023-05-10T17:42:09;16.80;99.90
23755;DHT22;12057;52.042;6.830;2023-05-10T17:47:11;16.70;99.90
23755;DHT22;12057;52.042;6.830;2023-05-10T17:52:12;16.80;99.90
23755;DHT22;12057;52.042;6.830;2023-05-10T17:57:12;16.70;99.90
23755;DHT22;12057;52.042;6.830;2023-05-10T18:02:13;16.80;99.90
23755;DHT22;12057;52.042;6.830;2023-05-10T18:07:14;16.70;99.90
23755;DHT22;12057;52.042;6.830;2023-05-10T18:12:16;16.50;99.90
23755;DHT22;12057;52.042;6.830;2023-05-10T18:17:16;16.50;99.90
23755;DHT22;12057;52.042;6.830;2023-05-10T18:22:17;16.50;99.90
23755;DHT22;12057;52.042;6.830;2023-05-10T18:27:18;16.50;99.90
23755;DHT22;12057;52.042;6.830;2023-05-10T18:32:19;16.40;99.90
23755;DHT22;12057;52.042;6.830;2023-05-10T18:37:20;16.40;99.90
23755;DHT22;12057;52.042;6.830;2023-05-10T18:42:21;16.30;99.90
23755;DHT22;12057;52.042;6.830;2023-05-10T18:47:21;16.10;99.90
23755;DHT22;12057;52.042;6.830;2023-05-10T18:52:22;16.10;99.90
23755;DHT22;12057;52.042;6.830;2023-05-10T18:57:23;16.00;99.90
23755;DHT22;12057;52.042;6.830;2023-05-10T19:02:24;16.00;99.90
23755;DHT22;12057;52.042;6.830;2023-05-10T19:07:25;16.00;99.90
23755;DHT22;12057;52.042;6.830;2023-05-10T19:12:26;16.00;99.90
23755;DHT22;12057;52.042;6.830;2023-05-10T19:17:27;15.80;99.90
23755;DHT22;12057;52.042;6.830;2023-05-10T19:22:28;15.80;99.90
23755;DHT22;12057;52.042;6.830;2023-05-10T19:27:29;15.80;99.90
23755;DHT22;12057;52.042;6.830;2023-05-10T19:32:31;15.70;99.90
23755;DHT22;12057;52.042;6.830;2023-05-10T19:37:32;15.70;99.90
23755;DHT22;12057;52.042;6.830;2023-05-10T19:42:33;15.70;99.90
23755;DHT22;12057;52.042;6.830;2023-05-10T19:47:33;15.60;99.90
23755;DHT22;12057;52.042;6.830;2023-05-10T19:52:35;15.60;99.90
23755;DHT22;12057;52.042;6.830;2023-05-10T19:57:36;15.50;99.90
23755;DHT22;12057;52.042;6.830;2023-05-10T20:02:37;15.50;99.90
23755;DHT22;12057;52.042;6.830;2023-05-10T20:07:38;15.50;99.90
23755;DHT22;12057;52.042;6.830;2023-05-10T20:12:39;15.40;99.90
23755;DHT22;12057;52.042;6.830;2023-05-10T20:17:39;15.40;99.90
23755;DHT22;12057;52.042;6.830;2023-05-10T20:22:44;15.40;99.90
23755;DHT22;12057;52.042;6.830;2023-05-10T20:27:48;15.30;99.90
23755;DHT22;12057;52.042;6.830;2023-05-10T20:32:50;15.20;99.90
23755;DHT22;12057;52.042;6.830;2023-05-10T20:37:51;15.20;99.90
23755;DHT22;12057;52.042;6.830;2023-05-10T20:42:52;15.10;99.90
23755;DHT22;12057;52.042;6.830;2023-05-10T20:47:53;15.10;99.90
23755;DHT22;12057;52.042;6.830;2023-05-10T20:53:01;15.10;99.90
23755;DHT22;12057;52.042;6.830;2023-05-10T20:58:10;15.10;99.90
23755;DHT22;12057;52.042;6.830;2023-05-10T21:03:20;15.00;99.90
23755;DHT22;12057;52.042;6.830;2023-05-10T21:08:25;14.90;99.90
23755;DHT22;12057;52.042;6.830;2023-05-10T21:13:33;14.90;99.90
23755;DHT22;12057;52.042;6.830;2023-05-10T21:18:35;14.90;99.90
23755;DHT22;12057;52.042;6.830;2023-05-10T21:23:52;14.80;99.90
23755;DHT22;12057;52.042;6.830;2023-05-10T21:28:54;14.80;99.90
23755;DHT22;12057;52.042;6.830;2023-05-10T21:33:56;14.80;99.90
23755;DHT22;12057;52.042;6.830;2023-05-10T21:38:58;14.80;99.90
23755;DHT22;12057;52.042;6.830;2023-05-10T21:49:35;14.90;99.90
23755;DHT22;12057;52.042;6.830;2023-05-10T21:54:36;14.90;99.90
23755;DHT22;12057;52.042;6.830;2023-05-10T21:59:38;14.90;99.90
23755;DHT22;12057;52.042;6.830;2023-05-10T22:04:38;14.90;99.90
23755;DHT22;12057;52.042;6.830;2023-05-10T22:09:42;14.90;99.90
23755;DHT22;12057;52.042;6.830;2023-05-10T22:14:43;15.00;99.90
23755;DHT22;12057;52.042;6.830;2023-05-10T22:19:44;15.00;99.90
23755;DHT22;12057;52.042;6.830;2023-05-10T22:24:45;15.00;99.90
23755;DHT22;12057;52.042;6.830;2023-05-10T22:29:46;15.00;99.90
23755;DHT22;12057;52.042;6.830;2023-05-10T22:34:48;15.00;99.90
23755;DHT22;12057;52.042;6.830;2023-05-10T22:39:48;15.00;99.90
23755;DHT22;12057;52.042;6.830;2023-05-10T22:44:49;14.90;99.90
23755;DHT22;12057;52.042;6.830;2023-05-10T22:49:50;14.90;99.90
23755;DHT22;12057;52.042;6.830;2023-05-10T22:54:51;14.90;99.90
23755;DHT22;12057;52.042;6.830;2023-05-10T22:59:52;15.00;99.90
23755;DHT22;12057;52.042;6.830;2023-05-10T23:04:52;15.00;99.90
23755;DHT22;12057;52.042;6.830;2023-05-10T23:09:53;14.90;99.90
23755;DHT22;12057;52.042;6.830;2023-05-10T23:14:54;14.90;99.90
23755;DHT22;12057;52.042;6.830;2023-05-10T23:19:55;14.90;99.90
23755;DHT22;12057;52.042;6.830;2023-05-10T23:24:56;14.90;99.90
23755;DHT22;12057;52.042;6.830;2023-05-10T23:29:57;14.90;99.90
23755;DHT22;12057;52.042;6.830;2023-05-10T23:34:58;14.80;99.90
23755;DHT22;12057;52.042;6.830;2023-05-10T23:39:59;14.90;99.90
23755;DHT22;12057;52.042;6.830;2023-05-10T23:45:00;14.90;99.90
23755;DHT22;12057;52.042;6.830;2023-05-10T23:50:00;14.80;99.90
23755;DHT22;12057;52.042;6.830;2023-05-10T23:55:01;14.90;99.90
